createdAt,value
2022-11-06T00:01:14.660Z,8.70
2022-11-06T00:03:41.770Z,8.70
2022-11-06T00:06:28.154Z,8.70
2022-11-06T00:08:55.145Z,8.70
2022-11-06T00:11:22.039Z,8.70
2022-11-06T00:13:49.479Z,8.60
2022-11-06T00:16:16.298Z,8.60
2022-11-06T00:18:43.017Z,8.60
2022-11-06T00:21:11.516Z,8.60
2022-11-06T00:23:38.730Z,8.60
2022-11-06T00:26:07.519Z,8.60
2022-11-06T00:28:34.396Z,8.60
2022-11-06T00:31:06.557Z,8.60
2022-11-06T00:33:33.632Z,8.50
2022-11-06T00:36:06.301Z,8.50
2022-11-06T00:38:33.406Z,8.50
2022-11-06T00:41:04.848Z,8.50
2022-11-06T00:43:32.966Z,8.40
2022-11-06T00:46:07.907Z,8.40
2022-11-06T00:48:35.296Z,8.40
2022-11-06T00:51:07.383Z,8.40
2022-11-06T00:53:34.226Z,8.40
2022-11-06T00:56:12.641Z,8.40
2022-11-06T00:58:59.254Z,8.40
2022-11-06T01:01:50.403Z,8.30
2022-11-06T01:04:21.922Z,8.40
2022-11-06T01:06:50.934Z,8.30
2022-11-06T01:09:19.818Z,8.30
2022-11-06T01:12:12.452Z,8.30
2022-11-06T01:14:40.140Z,8.30
2022-11-06T01:17:07.119Z,8.20
2022-11-06T01:19:33.783Z,8.30
2022-11-06T01:22:00.444Z,8.30
2022-11-06T01:24:28.667Z,8.20
2022-11-06T01:27:24.913Z,8.20
2022-11-06T01:29:42.633Z,8.20
2022-11-06T01:32:09.560Z,8.20
2022-11-06T01:34:36.297Z,8.20
2022-11-06T01:37:03.192Z,8.20
2022-11-06T01:39:31.168Z,8.20
2022-11-06T01:41:57.900Z,8.10
2022-11-06T01:44:33.813Z,8.10
2022-11-06T01:47:01.981Z,8.10
2022-11-06T01:49:33.199Z,8.20
2022-11-06T01:52:06.340Z,8.10
2022-11-06T01:54:34.556Z,8.10
2022-11-06T01:57:02.341Z,8.10
2022-11-06T01:59:31.704Z,8.10
2022-11-06T02:01:58.753Z,8.10
2022-11-06T02:04:36.222Z,8.10
2022-11-06T02:07:03.330Z,8.00
2022-11-06T02:09:30.945Z,8.00
2022-11-06T02:12:15.345Z,8.00
2022-11-06T02:15:31.313Z,8.00
2022-11-06T02:18:14.154Z,8.00
2022-11-06T02:20:54.518Z,7.90
2022-11-06T02:23:24.225Z,7.90
2022-11-06T02:26:17.192Z,7.90
2022-11-06T02:29:10.275Z,7.90
2022-11-06T02:31:40.781Z,7.90
2022-11-06T02:34:12.847Z,7.90
2022-11-06T02:36:50.749Z,7.80
2022-11-06T02:39:19.484Z,7.90
2022-11-06T02:41:47.172Z,7.80
2022-11-06T02:44:20.834Z,7.70
2022-11-06T02:46:51.916Z,7.80
2022-11-06T02:49:28.675Z,7.80
2022-11-06T02:51:59.088Z,7.70
2022-11-06T02:54:27.714Z,7.70
2022-11-06T02:56:56.195Z,7.80
2022-11-06T02:59:30.841Z,7.70
2022-11-06T03:02:08.107Z,7.70
2022-11-06T03:04:42.830Z,7.70
2022-11-06T03:07:21.118Z,7.70
2022-11-06T03:09:48.734Z,7.70
2022-11-06T03:12:26.067Z,7.70
2022-11-06T03:15:23.652Z,7.70
2022-11-06T03:18:20.000Z,7.60
2022-11-06T03:21:16.587Z,7.70
2022-11-06T03:23:55.833Z,7.70
2022-11-06T03:26:46.249Z,7.70
2022-11-06T03:29:29.734Z,7.70
2022-11-06T03:32:14.989Z,7.60
2022-11-06T03:34:48.554Z,7.60
2022-11-06T03:37:39.317Z,7.70
2022-11-06T03:40:10.069Z,7.70
2022-11-06T03:42:37.812Z,7.60
2022-11-06T03:45:09.904Z,7.70
2022-11-06T03:47:45.934Z,7.70
2022-11-06T03:50:24.486Z,7.70
2022-11-06T03:53:21.526Z,7.70
2022-11-06T03:55:59.262Z,7.70
2022-11-06T03:58:30.505Z,7.70
2022-11-06T04:00:58.628Z,7.60
2022-11-06T04:03:51.767Z,7.60
2022-11-06T04:06:35.861Z,7.70
2022-11-06T04:09:22.872Z,7.70
2022-11-06T04:12:09.026Z,7.70
2022-11-06T04:14:37.588Z,7.60
2022-11-06T04:17:06.902Z,7.60
2022-11-06T04:19:33.661Z,7.60
2022-11-06T04:22:23.785Z,7.60
2022-11-06T04:25:44.454Z,7.60
2022-11-06T04:28:32.900Z,7.60
2022-11-06T04:31:42.706Z,7.60
2022-11-06T04:34:20.940Z,7.50
2022-11-06T04:36:57.020Z,7.50
2022-11-06T04:39:49.862Z,7.50
2022-11-06T04:42:40.545Z,7.50
2022-11-06T04:45:12.127Z,7.50
2022-11-06T04:47:39.295Z,7.50
2022-11-06T04:50:08.451Z,7.60
2022-11-06T04:52:35.511Z,7.50
2022-11-06T04:55:02.385Z,7.50
2022-11-06T04:57:29.230Z,7.50
2022-11-06T04:59:56.831Z,7.50
2022-11-06T05:02:23.705Z,7.50
2022-11-06T05:04:50.420Z,7.50
2022-11-06T05:07:17.598Z,7.50
2022-11-06T05:09:45.591Z,7.50
2022-11-06T05:12:12.208Z,7.50
2022-11-06T05:14:38.883Z,7.50
2022-11-06T05:17:05.547Z,7.50
2022-11-06T05:19:32.148Z,7.50
2022-11-06T05:22:17.318Z,7.50
2022-11-06T05:24:43.911Z,7.40
2022-11-06T05:27:10.543Z,7.50
2022-11-06T05:29:37.132Z,7.50
2022-11-06T05:32:03.890Z,7.40
2022-11-06T05:34:30.571Z,7.50
2022-11-06T05:36:57.506Z,7.40
2022-11-06T05:39:24.120Z,7.40
2022-11-06T05:41:50.748Z,7.40
2022-11-06T05:44:17.398Z,7.50
2022-11-06T05:46:49.381Z,7.70
2022-11-06T05:49:17.278Z,7.50
2022-11-06T05:51:44.057Z,7.50
2022-11-06T05:54:10.668Z,7.40
2022-11-06T05:56:37.285Z,7.40
2022-11-06T05:59:03.983Z,7.40
2022-11-06T06:01:30.768Z,7.40
2022-11-06T06:03:58.958Z,7.40
2022-11-06T06:06:25.921Z,7.40
2022-11-06T06:08:52.529Z,7.40
2022-11-06T06:11:19.350Z,7.40
2022-11-06T06:13:45.975Z,7.40
2022-11-06T06:16:12.568Z,7.40
2022-11-06T06:18:39.248Z,7.40
2022-11-06T06:21:06.055Z,7.40
2022-11-06T06:23:32.654Z,7.40
2022-11-06T06:25:59.301Z,7.40
2022-11-06T06:28:25.906Z,7.40
2022-11-06T06:30:57.211Z,7.40
2022-11-06T06:33:26.923Z,7.40
2022-11-06T06:35:53.640Z,7.40
2022-11-06T06:38:20.463Z,7.30
2022-11-06T06:40:47.073Z,7.30
2022-11-06T06:43:13.687Z,7.30
2022-11-06T06:45:40.304Z,7.30
2022-11-06T06:48:07.364Z,7.30
2022-11-06T06:50:34.027Z,7.30
2022-11-06T06:53:00.643Z,7.30
2022-11-06T06:55:27.307Z,7.30
2022-11-06T06:57:58.956Z,7.30
2022-11-06T07:00:26.593Z,7.20
2022-11-06T07:02:53.428Z,7.20
2022-11-06T07:05:20.322Z,7.20
2022-11-06T07:07:47.323Z,7.20
2022-11-06T07:10:14.195Z,7.20
2022-11-06T07:12:40.810Z,7.20
2022-11-06T07:15:08.454Z,7.20
2022-11-06T07:17:35.103Z,7.20
2022-11-06T07:20:01.812Z,7.20
2022-11-06T07:22:35.448Z,7.80
2022-11-06T07:25:04.239Z,7.10
2022-11-06T07:27:30.845Z,7.10
2022-11-06T07:29:57.535Z,7.10
2022-11-06T07:32:24.183Z,7.10
2022-11-06T07:34:50.803Z,7.20
2022-11-06T07:37:17.488Z,7.20
2022-11-06T07:39:44.202Z,7.10
2022-11-06T07:42:10.851Z,7.10
2022-11-06T07:44:37.472Z,7.10
2022-11-06T07:47:04.347Z,7.20
2022-11-06T07:49:30.935Z,7.10
2022-11-06T07:51:57.563Z,7.10
2022-11-06T07:54:24.208Z,7.10
2022-11-06T07:56:50.840Z,7.30
2022-11-06T07:59:17.475Z,7.10
2022-11-06T08:01:44.216Z,7.10
2022-11-06T08:04:11.630Z,7.10
2022-11-06T08:06:38.216Z,7.10
2022-11-06T08:09:06.961Z,7.20
2022-11-06T08:11:33.604Z,7.10
2022-11-06T08:14:01.058Z,7.20
2022-11-06T08:16:28.056Z,7.20
2022-11-06T08:18:55.068Z,7.20
2022-11-06T08:21:21.683Z,7.10
2022-11-06T08:23:48.282Z,7.20
2022-11-06T08:26:14.907Z,7.20
2022-11-06T08:28:41.570Z,7.20
2022-11-06T08:31:09.059Z,7.20
2022-11-06T08:33:36.849Z,7.20
2022-11-06T08:36:05.175Z,7.30
2022-11-06T08:38:31.824Z,7.30
2022-11-06T08:40:58.458Z,7.30
2022-11-06T08:43:26.531Z,7.30
2022-11-06T08:45:53.591Z,7.30
2022-11-06T08:48:20.286Z,7.30
2022-11-06T08:50:46.876Z,7.30
2022-11-06T08:53:13.775Z,7.50
2022-11-06T08:55:40.657Z,7.50
2022-11-06T08:58:07.622Z,7.50
2022-11-06T09:00:35.101Z,7.60
2022-11-06T09:03:12.964Z,7.60
2022-11-06T09:05:41.718Z,7.50
2022-11-06T09:08:09.228Z,7.60
2022-11-06T09:10:37.437Z,7.70
2022-11-06T09:13:04.561Z,7.70
2022-11-06T09:15:31.616Z,7.80
2022-11-06T09:17:58.460Z,7.80
2022-11-06T09:20:26.249Z,7.80
2022-11-06T09:22:53.223Z,7.80
2022-11-06T09:25:20.243Z,7.80
2022-11-06T09:27:50.404Z,7.80
2022-11-06T09:30:20.652Z,7.90
2022-11-06T09:32:52.614Z,8.00
2022-11-06T09:35:20.322Z,8.00
2022-11-06T09:37:47.472Z,8.00
2022-11-06T09:40:26.035Z,8.10
2022-11-06T09:44:04.240Z,8.10
2022-11-06T09:46:34.593Z,8.20
2022-11-06T09:49:38.730Z,8.20
2022-11-06T09:52:26.624Z,8.20
2022-11-06T09:54:58.675Z,8.30
2022-11-06T09:57:37.304Z,8.30
2022-11-06T10:00:05.542Z,8.40
2022-11-06T10:02:45.706Z,8.40
2022-11-06T10:05:30.429Z,8.40
2022-11-06T10:08:06.538Z,8.40
2022-11-06T10:10:54.364Z,8.40
2022-11-06T10:13:58.715Z,8.50
2022-11-06T10:16:45.707Z,8.50
2022-11-06T10:19:15.204Z,8.50
2022-11-06T10:22:11.568Z,8.60
2022-11-06T10:24:52.987Z,8.60
2022-11-06T10:28:02.214Z,8.60
2022-11-06T10:31:04.765Z,8.70
2022-11-06T10:33:41.997Z,8.70
2022-11-06T10:36:13.197Z,8.70
2022-11-06T10:38:43.319Z,8.70
2022-11-06T10:41:23.349Z,8.80
2022-11-06T10:43:54.737Z,8.90
2022-11-06T10:46:31.299Z,8.90
2022-11-06T10:49:00.886Z,9.00
2022-11-06T10:51:52.994Z,9.00
2022-11-06T10:54:41.344Z,9.00
2022-11-06T10:57:16.886Z,9.00
2022-11-06T10:59:44.050Z,9.10
2022-11-06T11:02:28.101Z,9.20
2022-11-06T11:04:57.980Z,9.20
2022-11-06T11:07:26.585Z,9.30
2022-11-06T11:09:55.226Z,9.30
2022-11-06T11:12:30.648Z,9.30
2022-11-06T11:15:15.999Z,9.40
2022-11-06T11:17:49.018Z,10.30
2022-11-06T11:20:31.611Z,9.50
2022-11-06T11:23:25.869Z,9.50
2022-11-06T11:26:04.097Z,9.50
2022-11-06T11:28:34.575Z,9.60
2022-11-06T11:34:26.675Z,9.70
2022-11-06T11:36:59.110Z,9.70
2022-11-06T11:39:45.261Z,9.80
2022-11-06T11:42:31.752Z,9.80
2022-11-06T11:45:11.023Z,9.90
2022-11-06T11:52:01.596Z,10.00
2022-11-06T12:02:59.211Z,9.70
2022-11-06T12:13:36.116Z,10.60
2022-11-06T12:16:07.145Z,10.60
2022-11-06T12:18:46.987Z,10.70
2022-11-06T12:21:33.494Z,10.80
2022-11-06T12:24:12.349Z,10.90
2022-11-06T12:26:54.509Z,10.90
2022-11-06T12:29:34.852Z,11.00
2022-11-06T12:32:17.291Z,11.10
2022-11-06T12:34:54.992Z,11.20
2022-11-06T12:37:43.648Z,11.20
2022-11-06T12:40:25.008Z,11.30
2022-11-06T12:43:15.878Z,11.40
2022-11-06T12:45:54.051Z,11.50
2022-11-06T12:48:36.237Z,11.60
2022-11-06T12:51:12.820Z,11.60
2022-11-06T12:54:11.522Z,11.60
2022-11-06T12:56:57.008Z,11.70
2022-11-06T12:59:45.964Z,11.70
2022-11-06T13:02:52.923Z,11.80
2022-11-06T13:05:43.596Z,11.90
2022-11-06T13:08:33.371Z,11.90
2022-11-06T13:11:09.483Z,12.00
2022-11-06T13:14:10.466Z,12.00
2022-11-06T13:16:53.256Z,12.10
2022-11-06T13:19:29.153Z,12.10
2022-11-06T13:22:05.168Z,12.20
2022-11-06T13:24:49.346Z,12.20
2022-11-06T13:27:30.992Z,12.20
2022-11-06T13:30:03.286Z,12.30
2022-11-06T13:32:32.800Z,12.30
2022-11-06T13:35:00.104Z,12.30
2022-11-06T13:37:39.380Z,12.40
2022-11-06T13:40:26.660Z,12.40
2022-11-06T13:43:11.882Z,12.40
2022-11-06T13:46:06.766Z,12.50
2022-11-06T13:48:52.262Z,12.50
2022-11-06T13:51:38.871Z,12.50
2022-11-06T13:54:15.049Z,12.50
2022-11-06T13:56:56.292Z,12.60
2022-11-06T14:00:02.984Z,12.60
2022-11-06T14:02:59.928Z,12.60
2022-11-06T14:06:06.181Z,12.60
2022-11-06T14:08:55.389Z,12.70
2022-11-06T14:11:37.152Z,12.70
2022-11-06T14:14:18.199Z,12.70
2022-11-06T14:16:45.144Z,12.70
2022-11-06T14:19:20.693Z,12.70
2022-11-06T14:21:55.812Z,12.70
2022-11-06T14:24:33.953Z,12.80
2022-11-06T14:27:12.200Z,12.80
2022-11-06T14:29:38.802Z,12.80
2022-11-06T14:32:21.443Z,12.80
2022-11-06T14:34:48.441Z,12.70
2022-11-06T14:37:18.162Z,12.80
2022-11-06T14:39:56.804Z,12.80
2022-11-06T14:42:27.023Z,12.80
2022-11-06T14:44:56.462Z,12.80
2022-11-06T14:47:43.519Z,12.80
2022-11-06T14:50:38.210Z,12.80
2022-11-06T14:53:23.146Z,12.80
2022-11-06T14:56:03.167Z,12.80
2022-11-06T14:58:54.690Z,12.80
2022-11-06T15:01:33.105Z,12.80
2022-11-06T15:04:04.755Z,12.80
2022-11-06T15:06:31.372Z,12.90
2022-11-06T15:09:13.412Z,12.80
2022-11-06T15:11:47.496Z,12.80
2022-11-06T15:14:14.706Z,12.80
2022-11-06T15:17:07.659Z,12.80
2022-11-06T15:19:41.863Z,12.80
2022-11-06T15:22:35.688Z,12.80
2022-11-06T15:25:17.131Z,12.80
2022-11-06T15:27:53.616Z,12.80
2022-11-06T15:30:22.298Z,12.70
2022-11-06T15:32:49.627Z,12.80
2022-11-06T15:35:22.431Z,12.80
2022-11-06T15:37:53.025Z,12.80
2022-11-06T15:40:36.515Z,12.80
2022-11-06T15:43:22.655Z,12.80
2022-11-06T15:46:07.005Z,12.70
2022-11-06T15:48:34.921Z,12.70
2022-11-06T15:51:01.750Z,12.70
2022-11-06T15:53:29.920Z,12.70
2022-11-06T15:55:58.622Z,13.10
2022-11-06T15:58:31.019Z,12.60
2022-11-06T16:01:02.756Z,12.60
2022-11-06T16:03:32.225Z,12.60
2022-11-06T16:06:02.163Z,12.50
2022-11-06T16:08:30.153Z,12.50
2022-11-06T16:10:57.960Z,12.50
2022-11-06T16:13:25.684Z,12.50
2022-11-06T16:15:55.268Z,12.40
2022-11-06T16:18:29.197Z,12.40
2022-11-06T16:21:10.015Z,12.40
2022-11-06T16:23:58.808Z,12.40
2022-11-06T16:26:35.559Z,12.30
2022-11-06T16:29:07.830Z,12.30
2022-11-06T16:31:35.153Z,12.30
2022-11-06T16:34:06.060Z,12.20
2022-11-06T16:36:50.725Z,12.30
2022-11-06T16:39:17.321Z,12.20
2022-11-06T16:42:17.451Z,12.20
2022-11-06T16:44:46.481Z,12.20
2022-11-06T16:47:21.742Z,12.20
2022-11-06T16:49:54.331Z,12.10
2022-11-06T16:52:40.471Z,12.00
2022-11-06T16:55:25.546Z,12.10
2022-11-06T16:57:57.522Z,12.00
2022-11-06T17:00:27.053Z,12.00
2022-11-06T17:03:00.527Z,12.00
2022-11-06T17:05:33.633Z,12.00
2022-11-06T17:08:18.991Z,11.90
2022-11-06T17:10:46.728Z,11.90
2022-11-06T17:13:33.105Z,11.80
2022-11-06T17:16:02.442Z,11.90
2022-11-06T17:18:35.003Z,11.90
2022-11-06T17:21:04.556Z,11.80
2022-11-06T17:23:32.594Z,11.80
2022-11-06T17:26:17.180Z,11.80
2022-11-06T17:28:44.238Z,11.80
2022-11-06T17:31:13.139Z,11.80
2022-11-06T17:33:40.861Z,11.80
2022-11-06T17:36:12.145Z,11.70
2022-11-06T17:38:38.840Z,11.70
2022-11-06T17:41:05.656Z,11.70
2022-11-06T17:43:32.385Z,11.70
2022-11-06T17:45:59.037Z,11.70
2022-11-06T17:48:25.825Z,11.70
2022-11-06T17:51:11.182Z,11.70
2022-11-06T17:53:37.846Z,11.60
2022-11-06T17:56:06.183Z,11.70
2022-11-06T17:58:33.960Z,11.60
2022-11-06T18:01:08.431Z,11.70
2022-11-06T18:03:37.792Z,11.70
2022-11-06T18:06:04.635Z,11.80
2022-11-06T18:08:31.315Z,11.70
2022-11-06T18:10:58.000Z,11.60
2022-11-06T18:13:26.536Z,11.60
2022-11-06T18:15:53.424Z,11.70
2022-11-06T18:18:20.390Z,11.70
2022-11-06T18:20:48.078Z,11.70
2022-11-06T18:23:15.012Z,11.70
2022-11-06T18:25:42.125Z,11.70
2022-11-06T18:28:09.038Z,11.70
2022-11-06T18:30:38.101Z,11.70
2022-11-06T18:33:04.761Z,11.70
2022-11-06T18:35:31.423Z,11.60
2022-11-06T18:37:58.166Z,11.60
2022-11-06T18:40:24.850Z,11.60
2022-11-06T18:42:54.455Z,11.70
2022-11-06T18:45:21.229Z,11.60
2022-11-06T18:47:48.041Z,11.50
2022-11-06T18:50:14.729Z,11.60
2022-11-06T18:52:57.008Z,11.60
2022-11-06T18:55:24.925Z,11.60
2022-11-06T18:57:51.646Z,11.50
2022-11-06T19:00:21.856Z,11.50
2022-11-06T19:02:48.797Z,11.50
2022-11-06T19:05:15.902Z,11.40
2022-11-06T19:07:47.782Z,11.40
2022-11-06T19:10:17.383Z,11.40
2022-11-06T19:12:44.482Z,11.40
2022-11-06T19:15:11.205Z,11.30
2022-11-06T19:17:38.047Z,11.40
2022-11-06T19:20:06.735Z,11.40
2022-11-06T19:22:34.337Z,11.30
2022-11-06T19:25:01.049Z,11.40
2022-11-06T19:27:27.816Z,11.40
2022-11-06T19:29:54.615Z,11.40
2022-11-06T19:32:21.402Z,11.50
2022-11-06T19:34:48.108Z,11.40
2022-11-06T19:37:14.783Z,11.40
2022-11-06T19:39:41.453Z,11.40
2022-11-06T19:42:08.156Z,11.40
2022-11-06T19:44:34.823Z,11.30
2022-11-06T19:47:01.508Z,11.40
2022-11-06T19:49:28.158Z,11.30
2022-11-06T19:51:54.954Z,11.30
2022-11-06T19:54:21.579Z,11.30
2022-11-06T19:57:29.220Z,11.30
2022-11-06T19:59:37.621Z,11.20
2022-11-06T20:02:04.650Z,11.30
2022-11-06T20:04:31.447Z,11.20
2022-11-06T20:06:58.152Z,11.20
2022-11-06T20:09:24.882Z,11.20
2022-11-06T20:11:51.994Z,11.30
2022-11-06T20:14:21.923Z,11.20
2022-11-06T20:16:49.683Z,11.20
2022-11-06T20:19:16.501Z,11.20
2022-11-06T20:21:43.235Z,11.20
2022-11-06T20:24:10.287Z,11.20
2022-11-06T20:26:37.736Z,11.30
2022-11-06T20:29:04.733Z,11.30
2022-11-06T20:31:32.182Z,11.30
2022-11-06T20:33:59.262Z,11.40
2022-11-06T20:36:28.394Z,11.40
2022-11-06T20:38:57.511Z,11.40
2022-11-06T20:41:24.752Z,11.40
2022-11-06T20:43:52.434Z,11.30
2022-11-06T20:46:19.860Z,11.30
2022-11-06T20:48:48.024Z,11.30
2022-11-06T20:51:18.224Z,11.30
2022-11-06T20:53:45.832Z,11.40
2022-11-06T20:56:15.227Z,11.40
2022-11-06T20:58:42.134Z,11.30
2022-11-06T21:01:11.231Z,11.30
2022-11-06T21:03:39.238Z,11.30
2022-11-06T21:06:06.472Z,11.30
2022-11-06T21:08:34.542Z,11.20
2022-11-06T21:11:06.987Z,11.20
2022-11-06T21:13:35.137Z,11.20
2022-11-06T21:16:08.359Z,11.20
2022-11-06T21:18:36.549Z,11.20
2022-11-06T21:21:05.391Z,11.20
2022-11-06T21:23:32.480Z,11.10
2022-11-06T21:26:04.603Z,11.10
2022-11-06T21:28:33.375Z,11.10
2022-11-06T21:31:00.436Z,11.10
2022-11-06T21:33:27.072Z,11.10
2022-11-06T21:35:53.807Z,11.10
2022-11-06T21:38:20.531Z,11.10
2022-11-06T21:40:47.336Z,11.10
2022-11-06T21:43:14.322Z,11.10
2022-11-06T21:45:41.316Z,11.20
2022-11-06T21:48:14.835Z,11.10
2022-11-06T21:50:52.552Z,11.10
2022-11-06T21:53:37.917Z,11.10
2022-11-06T21:56:06.412Z,11.10
2022-11-06T21:58:33.112Z,11.10
2022-11-06T22:01:02.791Z,11.10
2022-11-06T22:03:29.719Z,11.10
2022-11-06T22:05:56.454Z,11.10
2022-11-06T22:08:25.247Z,11.10
2022-11-06T22:10:54.966Z,11.20
2022-11-06T22:13:21.617Z,11.10
2022-11-06T22:15:48.346Z,11.20
2022-11-06T22:18:15.440Z,11.10
2022-11-06T22:20:42.516Z,11.20
2022-11-06T22:23:09.202Z,11.20
2022-11-06T22:25:39.056Z,11.30
2022-11-06T22:28:05.883Z,11.30
2022-11-06T22:30:32.550Z,11.30
2022-11-06T22:32:59.629Z,11.40
2022-11-06T22:35:26.528Z,11.00
2022-11-06T22:37:53.318Z,11.40
2022-11-06T22:40:20.351Z,11.40
2022-11-06T22:42:49.652Z,11.40
2022-11-06T22:45:18.123Z,11.40
2022-11-06T22:47:46.719Z,11.40
2022-11-06T22:50:14.070Z,11.50
2022-11-06T22:52:41.713Z,11.50
2022-11-06T22:55:09.157Z,11.50
2022-11-06T22:57:35.876Z,11.60
2022-11-06T23:00:04.098Z,11.50
2022-11-06T23:02:31.270Z,11.50
2022-11-06T23:04:58.255Z,11.50
2022-11-06T23:07:24.988Z,11.50
2022-11-06T23:09:51.937Z,11.60
2022-11-06T23:12:18.948Z,11.60
2022-11-06T23:14:48.099Z,11.60
2022-11-06T23:17:15.310Z,11.60
2022-11-06T23:19:45.106Z,11.60
2022-11-06T23:22:30.643Z,11.60
2022-11-06T23:24:57.481Z,11.60
2022-11-06T23:27:26.277Z,11.60
2022-11-06T23:29:56.081Z,11.60
2022-11-06T23:32:23.066Z,11.70
2022-11-06T23:34:51.118Z,11.60
2022-11-06T23:37:17.921Z,11.70
2022-11-06T23:39:44.878Z,11.70
2022-11-06T23:42:22.594Z,11.70
2022-11-06T23:45:09.118Z,11.70
2022-11-06T23:47:36.491Z,11.70
2022-11-06T23:50:04.127Z,11.70
2022-11-06T23:52:31.101Z,11.70
2022-11-06T23:54:57.852Z,11.70
2022-11-06T23:57:25.209Z,11.60
2022-11-06T23:59:52.530Z,11.70
